Time;durP1;ratioP1;P1;durP2;ratioP2;P2;SDS_P1;SDS_P2;PMS_P1;PMS_P2;Temp;Humidity;BMP_temperature;BMP_pressure;BME280_temperature;BME280_humidity;BME280_pressure;Samples;Min_cycle;Max_cycle;Signal;HPM_P1;HPM_P2
2021/01/22 00:00:31;;;;;;;92.63;17.00;;;2.70;80.00;;;1.66;64.51;93414.91;5033328;28;20216;-85
2021/01/22 00:02:57;;;;;;;146.25;21.70;;;2.60;80.40;;;1.68;64.52;93408.59;5058432;28;20713;-84
2021/01/22 00:05:24;;;;;;;121.85;20.25;;;2.60;80.00;;;1.68;64.67;93412.97;5051528;28;20651;-85
2021/01/22 00:07:51;;;;;;;116.47;18.90;;;2.70;80.00;;;1.65;64.43;93402.97;5037174;28;20235;-84
2021/01/22 00:10:18;;;;;;;90.72;17.33;;;2.70;80.10;;;1.64;64.94;93394.41;5052550;28;20212;-85
2021/01/22 00:12:44;;;;;;;95.00;19.02;;;2.70;80.10;;;1.66;64.52;93391.66;5052890;28;20204;-86
2021/01/22 00:15:12;;;;;;;83.82;17.40;;;2.70;80.10;;;1.64;64.62;93378.91;5018532;28;20232;-85
2021/01/22 00:17:39;;;;;;;136.25;19.98;;;2.60;80.10;;;1.71;64.66;93389.34;5053100;28;20220;-85
2021/01/22 00:20:07;;;;;;;116.30;19.38;;;2.60;80.10;;;1.67;64.71;93367.41;5019775;28;20249;-85
2021/01/22 00:22:36;;;;;;;60.25;18.10;;;2.70;80.20;;;1.70;64.33;93367.88;5021971;28;20192;-84
2021/01/22 00:25:04;;;;;;;69.10;17.63;;;2.70;80.20;;;1.73;64.42;93377.06;5054163;28;20708;-84
2021/01/22 00:27:31;;;;;;;93.78;18.45;;;2.70;80.30;;;1.74;64.78;93369.13;5038000;28;20337;-86
2021/01/22 00:29:58;;;;;;;96.68;19.52;;;2.70;80.20;;;1.75;64.89;93375.09;5054737;28;20266;-85
2021/01/22 00:32:26;;;;;;;112.72;20.65;;;2.70;80.20;;;1.75;64.66;93375.91;5022668;28;20228;-85
2021/01/22 00:34:53;;;;;;;114.47;19.33;;;2.70;80.30;;;1.72;64.76;93373.69;5071729;28;20228;-85
2021/01/22 00:37:19;;;;;;;136.85;20.67;;;2.70;80.20;;;1.76;64.83;93362.00;5036960;28;20216;-84
2021/01/22 00:39:46;;;;;;;135.05;20.27;;;2.70;80.20;;;1.76;64.60;93353.44;5021201;28;20240;-84
2021/01/22 00:42:13;;;;;;;107.07;18.75;;;2.70;80.30;;;1.78;64.51;93356.66;5054519;28;20231;-85
2021/01/22 00:44:41;;;;;;;91.05;18.42;;;2.70;80.30;;;1.79;64.70;93354.88;5054057;28;20227;-84
2021/01/22 00:47:07;;;;;;;84.15;18.13;;;2.70;80.30;;;1.79;64.76;93354.88;5037858;28;20250;-85
2021/01/22 00:49:34;;;;;;;93.45;18.67;;;2.70;80.30;;;1.80;64.28;93353.91;5054503;28;20281;-82
2021/01/22 00:52:02;;;;;;;122.93;20.77;;;2.70;81.10;;;1.82;64.52;93351.94;5038238;28;20203;-85
2021/01/22 00:54:28;;;;;;;96.68;19.33;;;2.70;80.20;;;1.80;64.57;93330.63;5038043;28;20196;-83
2021/01/22 00:57:14;;;;;;;116.28;20.67;;;2.70;80.20;;;1.78;64.75;93335.19;5054010;28;20226;-85
2021/01/22 00:59:43;;;;;;;70.50;19.25;;;2.70;80.20;;;1.73;64.65;93330.53;5054323;28;20226;-84
2021/01/22 01:02:10;;;;;;;86.22;18.40;;;2.80;80.30;;;1.71;64.86;93322.13;5037096;28;20223;-85
2021/01/22 01:04:37;;;;;;;101.32;19.02;;;2.70;80.20;;;1.78;64.87;93335.97;5034964;28;20224;-85
2021/01/22 01:07:11;;;;;;;77.78;17.70;;;2.70;80.30;;;1.82;64.70;93349.34;5039240;28;20205;-84
2021/01/22 01:09:39;;;;;;;115.20;19.67;;;2.70;80.30;;;1.83;64.89;93345.78;5058545;28;20220;-83
2021/01/22 01:12:29;;;;;;;102.03;18.33;;;2.70;80.30;;;1.81;64.76;93350.31;5049071;28;20208;-85
2021/01/22 01:15:22;;;;;;;83.22;17.67;;;2.80;80.30;;;1.84;64.70;93348.19;5016021;28;20243;-84
2021/01/22 01:17:49;;;;;;;95.68;17.67;;;2.80;80.30;;;1.86;64.60;93335.88;5054067;28;20248;-84
2021/01/22 01:20:16;;;;;;;124.55;19.55;;;2.80;80.40;;;1.85;64.77;93334.28;5052563;28;20218;-83
2021/01/22 01:22:43;;;;;;;86.60;17.63;;;2.80;80.40;;;1.82;64.72;93324.31;5054263;28;20198;-86
2021/01/22 01:25:10;;;;;;;73.50;17.48;;;2.80;80.40;;;1.86;64.86;93317.78;5053343;28;20478;-85
2021/01/22 01:27:38;;;;;;;84.97;16.52;;;2.80;80.40;;;1.91;64.88;93322.44;5053818;28;20188;-84
2021/01/22 01:30:06;;;;;;;83.97;18.45;;;2.80;80.40;;;1.96;64.59;93324.50;5036722;28;20270;-82
2021/01/22 01:32:33;;;;;;;73.45;16.85;;;2.80;80.50;;;1.94;64.54;93311.72;5053675;28;20208;-85
2021/01/22 01:35:02;;;;;;;82.15;16.75;;;2.80;80.40;;;1.93;64.73;93292.03;5037805;28;20249;-85
2021/01/22 01:37:30;;;;;;;110.35;19.05;;;2.80;80.40;;;1.94;64.87;93290.25;5053511;28;20224;-84
2021/01/22 01:39:56;;;;;;;95.53;17.48;;;2.80;80.30;;;1.95;64.67;93294.44;5035919;28;20212;-85
2021/01/22 01:42:23;;;;;;;98.00;17.52;;;2.80;80.40;;;1.94;64.45;93287.66;5020901;28;20204;-85
2021/01/22 01:44:50;;;;;;;110.43;17.27;;;2.90;80.40;;;1.92;64.55;93287.84;5037196;28;20224;-85
2021/01/22 01:47:16;;;;;;;95.82;17.23;;;2.90;80.40;;;1.92;64.86;93287.84;5020419;28;20202;-84
2021/01/22 01:49:43;;;;;;;89.07;17.52;;;2.90;80.40;;;1.91;64.51;93284.44;5020235;28;20228;-85
2021/01/22 01:52:11;;;;;;;78.90;16.63;;;2.80;80.30;;;1.91;64.56;93288.81;5036917;28;20200;-85
2021/01/22 01:54:38;;;;;;;107.05;17.00;;;2.90;80.40;;;1.88;64.62;93279.66;5036958;28;20277;-85
2021/01/22 01:57:05;;;;;;;102.63;18.60;;;2.80;80.30;;;1.87;64.47;93272.88;5036098;28;20220;-84
2021/01/22 01:59:32;;;;;;;110.07;19.40;;;2.80;80.30;;;1.86;64.54;93263.50;5052487;28;20729;-85
2021/01/22 02:02:01;;;;;;;77.20;17.33;;;2.80;80.30;;;1.87;64.56;93269.50;5036132;28;20226;-84
2021/01/22 02:04:28;;;;;;;122.78;18.08;;;2.80;80.30;;;1.83;64.60;93256.13;5052666;28;20661;-85
2021/01/22 02:06:55;;;;;;;70.95;17.15;;;2.80;80.20;;;1.83;64.85;93269.06;5036281;28;20196;-84
2021/01/22 02:09:22;;;;;;;81.13;16.40;;;2.80;80.30;;;1.85;64.93;93258.53;5051916;28;20295;-82
2021/01/22 02:11:49;;;;;;;102.72;17.15;;;2.90;80.40;;;1.84;64.68;93262.88;5035976;28;20204;-82
2021/01/22 02:14:16;;;;;;;111.93;17.08;;;2.80;80.50;;;1.88;65.17;93269.31;5052541;28;20272;-83
2021/01/22 02:16:44;;;;;;;99.75;16.67;;;2.80;81.30;;;1.88;64.73;93265.91;5036025;28;20230;-85
2021/01/22 02:19:13;;;;;;;75.13;15.98;;;2.80;80.50;;;1.89;64.59;93249.41;5036126;28;20192;-85
2021/01/22 02:21:40;;;;;;;98.82;16.77;;;2.80;80.60;;;1.88;64.99;93258.16;5035591;28;20301;-85
2021/01/22 02:24:14;;;;;;;113.35;18.40;;;2.80;80.50;;;1.85;64.80;93243.00;5036688;28;20196;-85
2021/01/22 02:27:03;;;;;;;128.43;19.02;;;2.80;80.50;;;1.86;65.00;93252.38;5052624;28;20676;-84
2021/01/22 02:29:32;;;;;;;82.20;17.42;;;2.80;80.70;;;1.88;65.08;93258.16;5035526;28;20279;-85
2021/01/22 02:32:05;;;;;;;101.15;18.48;;;2.80;80.50;;;1.89;64.88;93258.00;5052729;28;20266;-84
2021/01/22 02:34:37;;;;;;;108.15;18.70;;;2.90;80.60;;;1.89;65.11;93254.59;5036095;28;20751;-85
2021/01/22 02:37:07;;;;;;;81.30;16.80;;;2.80;80.50;;;1.91;65.08;93257.81;5035369;28;20224;-85
2021/01/22 02:39:40;;;;;;;70.85;17.85;;;2.80;80.50;;;1.92;65.10;93252.44;5035069;28;20759;-86
2021/01/22 02:42:09;;;;;;;85.95;16.50;;;2.90;80.70;;;1.93;65.02;93248.09;5052420;28;20185;-83
2021/01/22 02:44:37;;;;;;;81.20;17.13;;;2.90;80.60;;;1.96;65.18;93254.69;5052030;28;20712;-85
2021/01/22 02:47:09;;;;;;;89.75;17.73;;;2.80;80.50;;;1.90;64.85;93254.44;5052159;28;20200;-85
2021/01/22 02:49:38;;;;;;;91.35;18.10;;;2.90;80.70;;;1.93;65.09;93250.69;5052397;28;20274;-84
2021/01/22 02:52:05;;;;;;;75.05;17.45;;;2.90;80.60;;;1.88;64.77;93243.47;5051942;28;20200;-85
2021/01/22 02:54:33;;;;;;;52.78;16.38;;;2.90;80.60;;;1.91;64.89;93239.72;5035255;28;20807;-85
2021/01/22 02:57:14;;;;;;;66.15;16.10;;;2.90;80.60;;;1.95;64.88;93243.53;5052307;28;20211;-85
2021/01/22 03:00:14;;;;;;;41.85;16.42;;;2.90;80.70;;;1.92;64.92;93244.69;5035563;28;20226;-85
2021/01/22 03:02:51;;;;;;;47.75;15.70;;;2.90;80.70;;;1.88;65.19;93233.13;5035629;28;20200;-85
2021/01/22 03:05:24;;;;;;;36.40;15.68;;;2.90;80.50;;;1.91;64.84;93242.28;5035139;28;20243;-83
2021/01/22 03:07:58;;;;;;;42.20;16.20;;;2.90;80.60;;;1.92;65.14;93249.06;5034983;28;20665;-85
2021/01/22 03:10:26;;;;;;;32.15;15.40;;;3.00;80.80;;;1.92;65.24;93249.84;5034930;28;20243;-85
2021/01/22 03:12:57;;;;;;;42.70;16.83;;;2.90;80.60;;;1.95;65.15;93240.94;5052005;28;20721;-84
2021/01/22 03:15:24;;;;;;;40.95;16.50;;;2.90;80.70;;;1.94;65.04;93243.72;5034552;28;20220;-84
2021/01/22 03:18:16;;;;;;;52.67;16.17;;;2.90;80.60;;;1.96;64.92;93247.72;5035394;28;20311;-82
2021/01/22 03:20:46;;;;;;;36.63;14.95;;;2.90;80.90;;;1.98;65.12;93239.78;5035260;28;20235;-82
2021/01/22 03:23:17;;;;;;;33.90;15.48;;;2.90;81.50;;;1.97;65.05;93238.19;5034725;28;20629;-83
2021/01/22 03:25:45;;;;;;;42.03;14.95;;;2.90;80.60;;;1.98;65.22;93224.25;5051842;28;20239;-85
2021/01/22 03:28:14;;;;;;;37.67;14.68;;;2.90;80.60;;;1.95;64.93;93227.22;5034849;28;20261;-85
2021/01/22 03:30:41;;;;;;;35.30;14.82;;;2.90;81.40;;;2.00;65.10;93227.47;5035438;28;20216;-83
2021/01/22 03:33:08;;;;;;;33.33;15.57;;;2.90;80.70;;;2.01;65.01;93234.25;5050581;28;20196;-82
2021/01/22 03:35:36;;;;;;;61.35;16.77;;;2.90;80.60;;;2.01;65.04;93236.84;5035412;28;20220;-82
2021/01/22 03:38:03;;;;;;;41.60;15.75;;;2.90;80.60;;;2.03;65.05;93237.47;5051340;28;20222;-83
2021/01/22 03:40:30;;;;;;;54.65;16.67;;;2.90;80.70;;;2.05;64.99;93232.91;5051115;28;20736;-83
2021/01/22 03:42:57;;;;;;;38.17;15.60;;;2.90;80.70;;;2.07;65.16;93233.53;5034653;28;20206;-84
2021/01/22 03:45:23;;;;;;;40.03;15.55;;;2.90;80.70;;;2.06;65.32;93234.50;5050874;28;20637;-84
2021/01/22 03:47:50;;;;;;;37.90;15.75;;;3.00;80.80;;;2.10;65.32;93237.53;5035066;28;20235;-84
2021/01/22 03:50:17;;;;;;;41.92;14.80;;;3.00;80.90;;;2.09;64.95;93231.56;5034873;28;20228;-84
2021/01/22 03:52:44;;;;;;;37.72;14.52;;;3.00;80.90;;;2.11;64.78;93244.31;5051161;28;20600;-82
2021/01/22 03:55:10;;;;;;;35.92;14.20;;;3.00;80.90;;;2.14;64.92;93236.22;5051552;28;20251;-82
2021/01/22 03:57:38;;;;;;;28.25;13.23;;;3.10;80.90;;;2.15;65.26;93246.38;5018591;28;20569;-82
2021/01/22 04:00:06;;;;;;;44.83;14.93;;;3.00;80.90;;;2.15;65.03;93237.78;5018238;28;20243;-82
2021/01/22 04:02:34;;;;;;;35.35;15.05;;;3.00;80.90;;;2.18;64.76;93250.38;5051240;28;20575;-83
2021/01/22 04:05:03;;;;;;;32.72;14.05;;;3.10;80.90;;;2.19;65.24;93241.63;5034694;28;20281;-84
2021/01/22 04:07:31;;;;;;;39.00;13.73;;;3.10;80.90;;;2.18;64.98;93240.03;5034406;28;20207;-84
2021/01/22 04:09:58;;;;;;;33.30;14.43;;;3.10;80.90;;;2.21;64.86;93244.81;5019066;28;20251;-84
2021/01/22 04:12:26;;;;;;;31.13;13.30;;;3.10;80.90;;;2.22;64.86;93246.41;5034592;28;20291;-84
2021/01/22 04:14:53;;;;;;;43.63;13.02;;;3.10;80.90;;;2.21;65.23;93245.63;5032404;28;20217;-84
2021/01/22 04:17:19;;;;;;;59.90;14.07;;;3.10;80.90;;;2.22;65.05;93243.84;5034908;28;20578;-85
2021/01/22 04:19:46;;;;;;;32.90;14.70;;;3.10;80.80;;;2.23;65.09;93237.69;5034811;28;20216;-85
2021/01/22 04:22:13;;;;;;;39.13;14.68;;;3.10;80.90;;;2.24;64.94;93244.47;5050215;28;20283;-83
2021/01/22 04:24:40;;;;;;;44.08;13.70;;;3.10;80.80;;;2.23;64.92;93241.09;5035006;28;20219;-84
2021/01/22 04:27:07;;;;;;;42.00;14.05;;;3.10;80.80;;;2.24;65.02;93236.69;5051146;28;20196;-84
2021/01/22 04:29:34;;;;;;;40.72;14.23;;;3.10;80.80;;;2.24;65.05;93240.09;5050405;28;20216;-85
2021/01/22 04:32:01;;;;;;;33.47;13.40;;;3.10;80.90;;;2.26;64.93;93234.75;5034771;28;20601;-82
2021/01/22 04:34:29;;;;;;;40.72;13.65;;;3.20;80.90;;;2.27;65.07;93235.53;5050765;28;20713;-83
2021/01/22 04:36:55;;;;;;;41.00;13.90;;;3.20;80.90;;;2.27;64.95;93232.94;5051424;28;20239;-81
2021/01/22 04:39:23;;;;;;;35.92;14.30;;;3.10;80.90;;;2.29;65.03;93231.00;5017275;28;20250;-82
2021/01/22 04:41:54;;;;;;;43.75;15.00;;;3.20;80.90;;;2.23;64.85;93219.56;5037131;28;20752;-83
2021/01/22 04:44:21;;;;;;;42.40;15.73;;;3.20;80.90;;;2.28;65.21;93224.22;5053810;28;20218;-82
2021/01/22 04:46:50;;;;;;;37.20;14.20;;;3.20;80.90;;;2.29;64.98;93231.00;5047855;28;20283;-83
2021/01/22 04:49:22;;;;;;;40.17;15.48;;;3.20;80.90;;;2.28;64.97;93234.56;5054631;28;20188;-84
2021/01/22 04:51:55;;;;;;;33.63;15.25;;;3.20;80.90;;;2.28;64.96;93234.56;5036272;28;20208;-83
2021/01/22 04:54:27;;;;;;;33.15;14.50;;;3.20;81.00;;;2.28;64.84;93232.75;5051118;28;20208;-82
2021/01/22 04:56:58;;;;;;;37.38;15.10;;;3.20;80.90;;;2.22;65.05;93225.72;5026348;28;20214;-81
2021/01/22 04:59:31;;;;;;;39.50;16.02;;;3.20;80.90;;;2.29;65.07;93241.34;5047226;28;20207;-82
2021/01/22 05:02:00;;;;;;;30.60;14.70;;;3.20;81.00;;;2.27;64.90;93236.34;5053110;28;20198;-84
2021/01/22 05:04:28;;;;;;;34.55;14.60;;;3.20;80.90;;;2.31;65.19;93242.75;5035348;28;20192;-83
2021/01/22 05:06:56;;;;;;;33.72;14.70;;;3.20;80.80;;;2.29;64.99;93231.78;5052399;28;20254;-84
2021/01/22 05:09:27;;;;;;;28.83;14.30;;;3.20;80.80;;;2.30;64.89;93228.22;5034910;28;20437;-82
2021/01/22 05:11:54;;;;;;;33.15;16.17;;;3.20;80.90;;;2.31;65.01;93236.78;5050649;28;20254;-83
2021/01/22 05:14:21;;;;;;;29.63;14.95;;;3.20;80.90;;;2.26;64.90;93226.97;5015834;28;20200;-83
2021/01/22 05:17:06;;;;;;;29.13;15.05;;;3.20;80.90;;;2.29;64.88;93233.56;5051843;28;20196;-85
2021/01/22 05:19:38;;;;;;;30.90;14.45;;;3.20;81.10;;;2.32;65.00;93235.78;5068348;28;20554;-83
2021/01/22 05:22:07;;;;;;;25.02;14.00;;;3.20;80.90;;;2.33;65.14;93237.38;5051622;28;20246;-82
2021/01/22 05:24:37;;;;;;;26.33;13.75;;;3.20;80.90;;;2.35;65.00;93241.41;5051280;28;20224;-83
2021/01/22 05:27:07;;;;;;;27.00;13.98;;;3.20;80.90;;;2.35;65.06;93238.03;5034368;28;20192;-83
2021/01/22 05:29:37;;;;;;;32.38;15.20;;;3.20;81.00;;;2.38;65.04;93235.06;5018522;28;20219;-82
2021/01/22 05:32:31;;;;;;;26.52;13.57;;;3.30;81.10;;;2.38;64.76;93242.81;5051215;28;20266;-83
2021/01/22 05:34:58;;;;;;;27.92;13.88;;;3.30;81.20;;;2.37;65.07;93234.25;5070574;28;20224;-83
2021/01/22 05:37:27;;;;;;;28.05;15.00;;;3.30;81.00;;;2.38;64.92;93235.88;5067252;28;20246;-84
2021/01/22 05:40:13;;;;;;;31.08;15.40;;;3.30;81.00;;;2.35;65.21;93233.63;5049007;28;20216;-83
2021/01/22 05:42:56;;;;;;;27.80;14.48;;;3.30;81.20;;;2.39;64.93;93240.06;5035376;28;20286;-82
2021/01/22 05:45:43;;;;;;;33.30;15.55;;;3.30;81.10;;;2.38;64.86;93246.22;5035025;28;20235;-83
2021/01/22 05:48:36;;;;;;;29.40;15.35;;;3.30;81.10;;;2.36;64.98;93243.00;5036525;28;20238;-82
2021/01/22 05:51:04;;;;;;;27.20;14.68;;;3.30;81.10;;;2.36;65.13;93234.44;5050550;28;20242;-83
2021/01/22 05:53:32;;;;;;;26.00;14.52;;;3.30;80.90;;;2.34;64.87;93239.78;5019481;28;20204;-84
2021/01/22 05:56:18;;;;;;;27.42;15.20;;;3.30;80.80;;;2.35;64.97;93238.81;5051569;28;20597;-83
2021/01/22 05:58:47;;;;;;;27.70;14.07;;;3.30;81.00;;;2.36;65.12;93247.38;5033987;28;20232;-83
2021/01/22 06:01:22;;;;;;;25.25;13.77;;;3.30;80.90;;;2.32;65.13;93231.44;5034366;28;20577;-83
2021/01/22 06:03:51;;;;;;;23.63;13.02;;;3.30;81.00;;;2.33;65.01;93238.22;5050890;28;20195;-83
2021/01/22 06:06:20;;;;;;;27.50;13.13;;;3.30;81.00;;;2.39;65.20;93242.66;5034794;28;20303;-83
2021/01/22 06:08:53;;;;;;;25.60;13.32;;;3.30;81.00;;;2.39;64.78;93236.66;5050419;28;20666;-82
2021/01/22 06:11:25;;;;;;;24.52;13.15;;;3.30;80.90;;;2.40;64.92;93246.03;5034834;28;20223;-83
2021/01/22 06:13:56;;;;;;;22.75;13.20;;;3.30;80.90;;;2.40;65.05;93248.63;5036158;28;20253;-83
2021/01/22 06:16:28;;;;;;;22.50;13.15;;;3.30;80.90;;;2.36;65.23;93248.19;5052699;28;20215;-83
2021/01/22 06:19:06;;;;;;;20.55;11.90;;;3.30;80.90;;;2.39;65.10;93259.94;5036182;28;20707;-83
2021/01/22 06:21:35;;;;;;;23.70;12.73;;;3.30;81.00;;;2.38;64.90;93259.16;5059026;28;20215;-83
2021/01/22 06:24:04;;;;;;;21.90;13.13;;;3.30;80.90;;;2.33;65.11;93247.75;5052205;28;20192;-84
2021/01/22 06:26:35;;;;;;;21.23;12.30;;;3.30;80.90;;;2.37;64.81;93259.34;5052840;28;20243;-83
2021/01/22 06:29:06;;;;;;;21.80;12.38;;;3.30;80.80;;;2.36;64.62;93261.13;5035904;28;20234;-83
2021/01/22 06:31:34;;;;;;;22.77;12.80;;;3.30;80.80;;;2.35;64.84;93248.38;5036430;28;20295;-83
2021/01/22 06:34:01;;;;;;;24.02;13.77;;;3.30;80.70;;;2.28;64.96;93240.53;5051157;28;20198;-83
2021/01/22 06:36:28;;;;;;;23.80;12.85;;;3.30;80.70;;;2.23;64.94;93242.84;5036110;28;20274;-83
2021/01/22 06:38:55;;;;;;;23.52;13.13;;;3.20;81.40;;;2.20;64.92;93236.25;5019201;28;20219;-83
2021/01/22 06:41:28;;;;;;;22.05;12.75;;;3.20;80.50;;;2.17;65.09;93241.00;5052568;28;20231;-83
2021/01/22 06:43:58;;;;;;;23.00;12.65;;;3.20;80.60;;;2.08;64.88;93235.13;5034452;28;20566;-83
2021/01/22 06:46:31;;;;;;;22.83;12.85;;;3.10;80.60;;;2.10;64.98;93242.72;5035325;28;20760;-83
2021/01/22 06:49:00;;;;;;;25.70;14.75;;;3.10;80.60;;;2.02;65.09;93239.22;5046547;28;20310;-82
2021/01/22 06:51:30;;;;;;;23.67;13.80;;;3.10;80.50;;;2.05;65.25;93233.72;5047279;28;20232;-82
2021/01/22 06:54:11;;;;;;;21.08;12.85;;;3.10;80.70;;;2.07;65.58;93238.69;5048204;28;20731;-82
2021/01/22 06:56:47;;;;;;;18.98;11.70;;;3.00;80.90;;;2.07;65.04;93236.13;5071614;28;20265;-83
2021/01/22 06:59:20;;;;;;;21.77;12.27;;;3.00;81.00;;;2.08;65.08;93229.97;5050876;28;20204;-82
2021/01/22 07:01:52;;;;;;;21.52;11.93;;;3.00;81.00;;;2.10;65.25;93233.19;5067389;28;20303;-82
2021/01/22 07:04:31;;;;;;;20.52;12.02;;;3.00;81.00;;;2.15;65.44;93236.00;5030931;28;20196;-82
2021/01/22 07:07:09;;;;;;;21.63;13.13;;;3.00;81.30;;;2.16;65.34;93235.03;5041766;28;20295;-81
2021/01/22 07:09:41;;;;;;;18.67;11.18;;;3.10;81.30;;;2.25;65.20;93240.91;5032797;28;20227;-82
2021/01/22 07:12:09;;;;;;;17.95;10.40;;;3.10;81.40;;;2.30;65.45;93235.97;5067388;28;20918;-82
2021/01/22 07:14:39;;;;;;;18.45;11.48;;;3.10;82.20;;;2.36;65.37;93245.59;5048094;28;20224;-83
2021/01/22 07:17:30;;;;;;;19.92;12.07;;;3.10;81.50;;;2.42;65.59;93257.00;5033094;28;20674;-83
2021/01/22 07:20:09;;;;;;;20.80;12.65;;;3.20;81.80;;;2.47;65.14;93259.84;5034481;28;20216;-83
2021/01/22 07:22:50;;;;;;;22.75;13.30;;;3.20;81.60;;;2.52;65.24;93261.88;5017966;28;20650;-83
2021/01/22 07:25:35;;;;;;;24.13;13.40;;;3.30;81.80;;;2.52;65.43;93254.13;5033992;28;20269;-81
2021/01/22 07:28:21;;;;;;;24.23;13.90;;;3.30;81.70;;;2.62;65.23;93262.38;5027754;28;20279;-81
2021/01/22 07:30:48;;;;;;;26.98;14.68;;;3.40;81.70;;;2.67;65.32;93262.66;5032391;28;20291;-81
2021/01/22 07:33:39;;;;;;;25.83;15.10;;;3.40;81.60;;;2.72;65.53;93262.88;5049560;28;20199;-81
2021/01/22 07:36:15;;;;;;;27.15;15.60;;;3.50;81.90;;;2.77;65.46;93257.16;5049637;28;20236;-81
2021/01/22 07:38:42;;;;;;;24.95;14.63;;;3.50;81.80;;;2.81;65.44;93250.63;5028854;28;20327;-82
2021/01/22 07:41:10;;;;;;;26.33;15.20;;;3.50;81.50;;;2.84;65.42;93259.81;5048147;28;20212;-81
2021/01/22 07:43:37;;;;;;;24.88;15.73;;;3.60;81.50;;;2.88;65.04;93248.91;5050106;28;20206;-82
2021/01/22 07:46:12;;;;;;;25.50;14.95;;;3.60;81.50;;;2.91;65.16;93247.72;5034116;28;20224;-82
2021/01/22 07:48:40;;;;;;;24.75;14.82;;;3.70;81.50;;;2.93;65.11;93245.75;5034070;28;20261;-81
2021/01/22 07:51:36;;;;;;;26.73;14.73;;;3.70;81.60;;;2.95;65.29;93240.38;5066345;28;20702;-81
2021/01/22 07:54:04;;;;;;;23.00;13.23;;;3.80;81.80;;;3.02;65.51;93241.25;5048212;28;20210;-81
2021/01/22 07:56:39;;;;;;;20.13;12.65;;;3.80;81.60;;;3.07;65.39;93235.50;5016174;28;20270;-81
2021/01/22 07:59:13;;;;;;;23.65;14.32;;;3.80;81.80;;;3.11;65.35;93228.94;5034774;28;20243;-82
2021/01/22 08:01:40;;;;;;;25.55;13.77;;;3.80;81.60;;;3.17;65.42;93235.97;5048133;28;20228;-82
2021/01/22 08:04:07;;;;;;;21.42;12.77;;;3.90;81.80;;;3.21;65.10;93245.00;5060904;28;20218;-81
2021/01/22 08:06:46;;;;;;;22.70;12.80;;;3.90;81.70;;;3.28;65.27;93239.84;5033620;28;20216;-82
2021/01/22 08:09:13;;;;;;;19.02;11.73;;;4.00;82.00;;;3.34;65.52;93258.03;5048251;28;20223;-81
2021/01/22 08:11:41;;;;;;;23.00;13.20;;;4.00;81.80;;;3.39;65.59;93254.06;5047589;28;20976;-82
2021/01/22 08:14:08;;;;;;;20.98;12.75;;;4.10;81.90;;;3.45;65.42;93258.50;5031858;28;20736;-81
2021/01/22 08:16:38;;;;;;;19.58;12.20;;;4.10;82.00;;;3.52;65.45;93270.50;5050936;28;20306;-81
2021/01/22 08:19:05;;;;;;;17.40;11.23;;;4.20;82.00;;;3.56;65.52;93268.34;5034420;28;20225;-81
2021/01/22 08:21:38;;;;;;;18.42;11.65;;;4.20;82.00;;;3.66;65.39;93270.59;5051178;28;20716;-82
2021/01/22 08:24:11;;;;;;;20.20;11.95;;;4.30;82.20;;;3.72;65.54;93271.63;5067739;28;20254;-81
2021/01/22 08:26:39;;;;;;;18.83;11.85;;;4.30;82.20;;;3.71;65.28;93263.06;5060369;28;20216;-80
2021/01/22 08:29:06;;;;;;;23.35;14.52;;;4.40;82.10;;;3.80;65.35;93267.09;5037858;28;20262;-81
2021/01/22 08:31:33;;;;;;;22.52;14.45;;;4.50;82.20;;;3.85;65.44;93266.53;5052763;28;20322;-81
2021/01/22 08:34:01;;;;;;;25.20;16.15;;;4.50;82.20;;;3.93;65.57;93257.78;5048601;28;20193;-82
2021/01/22 08:36:29;;;;;;;22.27;15.45;;;4.50;82.20;;;3.99;65.32;93267.38;5048419;28;20251;-81
2021/01/22 08:38:59;;;;;;;24.23;16.00;;;4.60;82.20;;;4.03;65.39;93254.84;5053820;28;20564;-82
2021/01/22 08:41:28;;;;;;;26.00;17.08;;;4.70;82.20;;;4.05;65.17;93243.25;5050801;28;20293;-82
2021/01/22 08:43:55;;;;;;;27.20;17.55;;;4.70;82.10;;;4.11;65.27;93242.53;5051644;28;20240;-81
2021/01/22 08:46:24;;;;;;;24.70;16.25;;;4.70;82.10;;;4.15;64.99;93237.72;5036969;28;20278;-81
2021/01/22 08:48:51;;;;;;;26.05;16.70;;;4.80;82.20;;;4.19;65.59;93231.16;5039017;28;20208;-82
2021/01/22 08:51:29;;;;;;;23.02;15.60;;;4.80;82.30;;;4.27;65.16;93235.38;5035542;28;20227;-82
2021/01/22 08:53:57;;;;;;;29.08;16.80;;;4.90;82.50;;;4.36;65.97;93244.59;5033808;28;20203;-81
2021/01/22 08:56:24;;;;;;;27.85;17.38;;;4.90;82.50;;;4.44;65.65;93248.81;5035326;28;20223;-81
2021/01/22 08:59:10;;;;;;;29.25;16.85;;;5.00;82.50;;;4.48;65.88;93242.25;5034964;28;20523;-81
2021/01/22 09:01:55;;;;;;;36.55;18.88;;;5.10;82.50;;;4.58;65.62;93253.03;5051701;28;20216;-81
2021/01/22 09:04:34;;;;;;;23.45;14.95;;;5.10;82.50;;;4.64;65.62;93254.06;5035769;28;20203;-82
2021/01/22 09:07:16;;;;;;;22.00;14.02;;;5.20;82.50;;;4.69;65.50;93250.88;5051701;28;20262;-81
2021/01/22 09:09:48;;;;;;;19.30;12.35;;;5.30;82.50;;;4.75;65.68;93252.69;5035278;28;20227;-82
2021/01/22 09:12:30;;;;;;;21.08;13.55;;;5.30;82.50;;;4.81;65.61;93255.28;5036677;28;20196;-82
2021/01/22 09:15:14;;;;;;;21.70;14.10;;;5.40;82.50;;;4.87;65.21;93248.53;5052507;28;20307;-81
2021/01/22 09:17:49;;;;;;;24.02;14.38;;;5.40;82.50;;;4.93;65.89;93250.31;5053571;28;20207;-81
2021/01/22 09:20:21;;;;;;;19.27;12.20;;;5.60;83.30;;;5.01;65.63;93253.72;5037513;28;20218;-81
2021/01/22 09:22:54;;;;;;;20.55;12.73;;;5.60;82.50;;;5.07;65.77;93248.53;5036584;28;20192;-82
2021/01/22 09:25:24;;;;;;;18.50;12.20;;;5.60;82.60;;;5.18;65.37;93244.53;5052534;28;20573;-82
2021/01/22 09:27:51;;;;;;;16.77;11.05;;;5.70;82.60;;;5.25;65.41;93247.94;5053059;28;20207;-81
2021/01/22 09:30:25;;;;;;;17.00;11.70;;;5.80;82.60;;;5.28;65.38;93254.53;5036536;28;20216;-81
2021/01/22 09:33:06;;;;;;;18.58;12.27;;;5.80;82.50;;;5.37;65.68;93255.13;5036308;28;20227;-81
2021/01/22 09:35:47;;;;;;;17.42;11.57;;;5.90;82.50;;;5.41;65.42;93259.72;5020795;28;20780;-82
2021/01/22 09:38:33;;;;;;;17.70;11.60;;;6.00;82.40;;;5.40;65.61;93258.13;5065197;28;20251;-81
2021/01/22 09:41:26;;;;;;;17.90;12.20;;;6.10;82.50;;;5.47;64.94;93262.53;5045980;28;20222;-81
2021/01/22 09:43:58;;;;;;;15.80;11.20;;;6.10;82.40;;;5.56;65.59;93262.13;5051424;28;20265;-81
2021/01/22 09:46:29;;;;;;;17.70;11.80;;;6.10;82.40;;;5.63;65.32;93262.13;5053322;28;20311;-82
2021/01/22 09:48:55;;;;;;;16.55;11.70;;;6.20;82.50;;;5.64;65.48;93248.13;5053014;28;20208;-81
2021/01/22 09:51:23;;;;;;;17.42;11.45;;;6.20;82.40;;;5.75;65.22;93260.50;5052946;28;20224;-80
2021/01/22 09:53:50;;;;;;;35.10;18.25;;;6.30;82.50;;;5.83;65.36;93245.69;5032698;28;20207;-82
2021/01/22 09:56:17;;;;;;;26.75;16.20;;;6.40;82.70;;;5.89;65.81;93256.06;5051318;28;20234;-82
2021/01/22 09:58:44;;;;;;;27.98;16.48;;;6.40;82.60;;;5.98;65.33;93245.44;5030596;28;20390;-82
2021/01/22 10:01:11;;;;;;;23.10;15.20;;;6.60;82.70;;;6.03;65.26;93250.84;5058412;28;20239;-82
2021/01/22 10:03:37;;;;;;;21.45;14.10;;;6.50;82.60;;;6.13;65.66;93242.59;5040581;28;20283;-81
2021/01/22 10:06:04;;;;;;;18.38;11.93;;;6.60;82.70;;;6.21;65.39;93242.38;5051188;28;20219;-82
2021/01/22 10:08:32;;;;;;;21.73;13.73;;;6.70;82.80;;;6.30;65.73;93245.56;5047548;28;20204;-82
2021/01/22 10:10:59;;;;;;;18.95;12.88;;;6.70;83.60;;;6.35;65.56;93235.34;5034311;28;20216;-84
2021/01/22 10:13:26;;;;;;;19.25;13.35;;;6.80;82.80;;;6.47;65.46;93243.28;5033319;28;20196;-82
2021/01/22 10:15:53;;;;;;;20.10;13.85;;;6.90;82.80;;;6.46;65.47;93231.25;5052463;28;20231;-82
2021/01/22 10:18:20;;;;;;;21.45;13.15;;;7.00;82.80;;;6.60;65.55;93238.00;5052567;28;20203;-82
2021/01/22 10:20:49;;;;;;;17.90;12.40;;;7.00;82.70;;;6.67;65.42;93230.97;5052531;28;20717;-82
2021/01/22 10:23:16;;;;;;;18.33;12.23;;;7.10;82.70;;;6.71;65.25;93221.72;5034457;28;20290;-82
2021/01/22 10:25:43;;;;;;;20.52;12.93;;;7.20;82.80;;;6.81;65.53;93221.28;5035479;28;20251;-83
2021/01/22 10:28:10;;;;;;;18.83;12.48;;;7.40;82.90;;;6.92;65.26;93221.59;5035951;28;20200;-82
2021/01/22 10:30:38;;;;;;;19.95;13.30;;;7.40;82.80;;;7.02;65.38;93220.13;5036306;28;20230;-81
2021/01/22 10:33:05;;;;;;;17.90;12.63;;;7.50;82.70;;;7.08;65.28;93209.84;5035408;28;20211;-82